createdAt,value
2023-03-17T00:01:17.021Z,9.10
2023-03-17T00:03:51.604Z,8.38
2023-03-17T00:06:29.432Z,13.07
2023-03-17T00:09:02.647Z,8.48
2023-03-17T00:11:36.831Z,9.73
2023-03-17T00:14:09.728Z,8.02
2023-03-17T00:16:45.264Z,10.18
2023-03-17T00:19:22.272Z,8.77
2023-03-17T00:21:56.058Z,9.23
2023-03-17T00:24:29.296Z,8.40
2023-03-17T00:27:04.388Z,8.02
2023-03-17T00:29:40.362Z,8.05
2023-03-17T00:32:17.961Z,8.77
2023-03-17T00:34:50.856Z,8.63
2023-03-17T00:37:24.670Z,9.30
2023-03-17T00:39:57.514Z,9.02
2023-03-17T00:42:33.609Z,9.65
2023-03-17T00:45:07.771Z,5.75
2023-03-17T00:47:41.434Z,8.55
2023-03-17T00:50:17.566Z,7.70
2023-03-17T00:52:52.156Z,8.65
2023-03-17T00:55:27.601Z,10.32
2023-03-17T00:58:03.056Z,6.55
2023-03-17T01:00:37.058Z,7.55
2023-03-17T01:03:12.356Z,8.35
2023-03-17T01:05:45.478Z,7.78
2023-03-17T01:08:18.617Z,6.22
2023-03-17T01:10:51.744Z,6.00
2023-03-17T01:13:26.762Z,6.93
2023-03-17T01:16:00.860Z,8.32
2023-03-17T01:18:34.518Z,8.77
2023-03-17T01:21:08.158Z,7.45
2023-03-17T01:23:42.855Z,8.82
2023-03-17T01:26:16.364Z,5.68
2023-03-17T01:28:51.431Z,8.13
2023-03-17T01:31:24.455Z,9.20
2023-03-17T01:33:57.384Z,6.90
2023-03-17T01:36:30.314Z,7.40
2023-03-17T01:39:05.527Z,6.93
2023-03-17T01:41:40.435Z,8.50
2023-03-17T01:44:19.413Z,7.55
2023-03-17T01:46:53.090Z,6.72
2023-03-17T01:49:30.798Z,7.78
2023-03-17T01:52:07.550Z,7.18
2023-03-17T01:54:47.024Z,8.25
2023-03-17T01:57:23.994Z,8.60
2023-03-17T02:00:03.225Z,7.38
2023-03-17T02:02:48.715Z,8.20
2023-03-17T02:05:24.218Z,6.90
2023-03-17T02:07:57.656Z,6.72
2023-03-17T02:10:34.322Z,7.05
2023-03-17T02:13:08.796Z,7.32
2023-03-17T02:15:46.259Z,6.28
2023-03-17T02:18:22.657Z,5.72
2023-03-17T02:21:32.647Z,6.45
2023-03-17T02:24:10.982Z,8.73
2023-03-17T02:26:46.566Z,6.88
2023-03-17T02:29:20.509Z,6.43
2023-03-17T02:31:53.466Z,8.25
2023-03-17T02:34:28.457Z,8.32
2023-03-17T02:37:02.732Z,9.60
2023-03-17T02:39:37.353Z,7.47
2023-03-17T02:42:11.277Z,7.20
2023-03-17T02:44:45.052Z,6.70
2023-03-17T02:47:18.768Z,5.95
2023-03-17T02:49:52.264Z,8.52
2023-03-17T02:52:27.853Z,5.57
2023-03-17T02:55:00.880Z,6.07
2023-03-17T02:57:34.354Z,5.85
2023-03-17T03:00:10.451Z,7.20
2023-03-17T03:02:43.617Z,9.30
2023-03-17T03:05:16.442Z,6.63
2023-03-17T03:07:51.653Z,5.43
2023-03-17T03:10:27.086Z,9.27
2023-03-17T03:12:59.903Z,5.78
2023-03-17T03:15:33.220Z,5.75
2023-03-17T03:18:06.379Z,8.05
2023-03-17T03:20:39.799Z,9.75
2023-03-17T03:23:15.210Z,11.02
2023-03-17T03:25:47.993Z,8.68
2023-03-17T03:28:20.886Z,6.60
2023-03-17T03:30:53.812Z,5.28
2023-03-17T03:33:27.276Z,7.78
2023-03-17T03:36:01.594Z,8.57
2023-03-17T03:38:36.895Z,6.78
2023-03-17T03:41:10.256Z,6.30
2023-03-17T03:43:43.473Z,7.18
2023-03-17T03:46:16.676Z,5.80
2023-03-17T03:48:49.674Z,6.70
2023-03-17T03:51:22.564Z,7.75
2023-03-17T03:53:56.905Z,6.47
2023-03-17T03:56:29.803Z,5.88
2023-03-17T03:59:03.098Z,7.32
2023-03-17T04:01:35.980Z,5.38
2023-03-17T04:04:09.618Z,7.57
2023-03-17T04:06:43.502Z,5.93
2023-03-17T04:09:17.959Z,6.22
2023-03-17T04:11:50.973Z,6.70
2023-03-17T04:14:24.102Z,5.22
2023-03-17T04:16:57.219Z,7.85
2023-03-17T04:19:30.261Z,6.97
2023-03-17T04:22:03.054Z,5.65
2023-03-17T04:24:39.054Z,5.82
2023-03-17T04:27:12.380Z,6.35
2023-03-17T04:29:45.718Z,8.52
2023-03-17T04:32:18.694Z,5.00
2023-03-17T04:34:51.620Z,5.05
2023-03-17T04:37:25.389Z,6.53
2023-03-17T04:39:59.962Z,5.32
2023-03-17T04:42:33.504Z,5.82
2023-03-17T04:45:07.652Z,5.38
2023-03-17T04:47:40.721Z,7.75
2023-03-17T04:50:14.641Z,5.28
2023-03-17T04:52:47.726Z,4.10
2023-03-17T04:55:22.095Z,5.65
2023-03-17T04:57:55.207Z,6.03
2023-03-17T05:00:28.759Z,4.75
2023-03-17T05:03:01.790Z,5.57
2023-03-17T05:05:35.066Z,3.88
2023-03-17T05:08:08.183Z,7.43
2023-03-17T05:10:42.728Z,7.65
2023-03-17T05:13:15.997Z,5.20
2023-03-17T05:15:49.816Z,5.50
2023-03-17T05:18:25.269Z,6.50
2023-03-17T05:20:58.148Z,6.18
2023-03-17T05:23:31.025Z,5.35
2023-03-17T05:26:05.578Z,6.60
2023-03-17T05:28:38.453Z,8.68
2023-03-17T05:31:11.918Z,7.55
2023-03-17T05:33:44.863Z,6.63
2023-03-17T05:36:18.157Z,5.28
2023-03-17T05:38:51.123Z,8.02
2023-03-17T05:41:25.742Z,4.95
2023-03-17T05:43:58.804Z,6.45
2023-03-17T05:46:32.018Z,5.93
2023-03-17T05:49:05.248Z,6.15
2023-03-17T05:51:38.309Z,8.88
2023-03-17T05:54:11.158Z,10.10
2023-03-17T05:56:45.694Z,9.80
2023-03-17T05:59:18.639Z,10.57
2023-03-17T06:01:52.049Z,12.68
2023-03-17T06:04:25.472Z,7.03
2023-03-17T06:06:58.757Z,7.68
2023-03-17T06:09:31.859Z,7.05
2023-03-17T06:12:06.751Z,8.40
2023-03-17T06:14:39.620Z,6.90
2023-03-17T06:17:13.291Z,7.93
2023-03-17T06:19:49.374Z,8.35
2023-03-17T06:22:22.505Z,7.22
2023-03-17T06:24:56.142Z,11.68
2023-03-17T06:27:30.753Z,8.48
2023-03-17T06:30:04.382Z,8.02
2023-03-17T06:32:37.708Z,7.55
2023-03-17T06:35:11.169Z,8.32
2023-03-17T06:37:43.985Z,7.22
2023-03-17T06:40:17.167Z,7.65
2023-03-17T06:42:51.683Z,7.95
2023-03-17T06:45:24.950Z,8.10
2023-03-17T06:47:57.995Z,8.70
2023-03-17T06:50:30.984Z,6.57
2023-03-17T06:53:04.155Z,10.80
2023-03-17T06:55:37.022Z,7.78
2023-03-17T06:58:13.174Z,13.05
2023-03-17T07:00:48.884Z,12.20
2023-03-17T07:03:23.967Z,10.25
2023-03-17T07:05:56.857Z,10.75
2023-03-17T07:08:31.018Z,4.88
2023-03-17T07:11:04.575Z,5.68
2023-03-17T07:13:39.909Z,4.88
2023-03-17T07:16:16.786Z,5.13
2023-03-17T07:18:50.756Z,3.97
2023-03-17T07:21:23.705Z,7.47
2023-03-17T07:23:57.191Z,7.20
2023-03-17T07:26:30.034Z,8.07
2023-03-17T07:29:04.243Z,11.10
2023-03-17T07:31:38.809Z,9.15
2023-03-17T07:34:12.765Z,8.35
2023-03-17T07:36:45.751Z,7.93
2023-03-17T07:39:18.849Z,8.52
2023-03-17T07:41:56.066Z,6.68
2023-03-17T07:44:31.262Z,5.82
2023-03-17T07:47:04.276Z,5.68
2023-03-17T07:49:41.567Z,4.00
2023-03-17T07:52:14.821Z,9.38
2023-03-17T07:54:47.634Z,6.80
2023-03-17T07:57:20.799Z,4.70
2023-03-17T07:59:56.092Z,4.72
2023-03-17T08:02:29.046Z,4.30
2023-03-17T08:05:02.058Z,7.00
2023-03-17T08:07:34.934Z,3.95
2023-03-17T08:10:09.551Z,6.80
2023-03-17T08:12:43.293Z,6.15
2023-03-17T08:15:17.674Z,4.57
2023-03-17T08:17:50.495Z,5.38
2023-03-17T08:20:23.523Z,5.55
2023-03-17T08:22:57.243Z,4.45
2023-03-17T08:25:31.680Z,4.32
2023-03-17T08:28:04.604Z,5.47
2023-03-17T08:30:39.887Z,5.97
2023-03-17T08:33:13.380Z,6.50
2023-03-17T08:35:46.517Z,5.85
2023-03-17T08:38:19.315Z,4.13
2023-03-17T08:40:52.195Z,4.57
2023-03-17T08:43:25.025Z,4.60
2023-03-17T08:46:04.246Z,7.50
2023-03-17T08:48:38.632Z,7.22
2023-03-17T08:51:11.822Z,4.05
2023-03-17T08:53:44.859Z,5.53
2023-03-17T08:56:18.561Z,5.35
2023-03-17T08:58:52.277Z,4.53
2023-03-17T09:01:27.410Z,6.05
2023-03-17T09:04:01.007Z,3.50
2023-03-17T09:06:33.957Z,3.58
2023-03-17T09:09:06.868Z,4.53
2023-03-17T09:11:40.204Z,3.47
2023-03-17T09:14:13.027Z,4.90
2023-03-17T09:16:48.773Z,5.20
2023-03-17T09:19:21.923Z,7.63
2023-03-17T09:21:54.819Z,4.35
2023-03-17T09:24:27.736Z,5.10
2023-03-17T09:27:01.369Z,4.75
2023-03-17T09:29:35.035Z,3.40
2023-03-17T09:32:10.323Z,6.20
2023-03-17T09:34:43.072Z,5.07
2023-03-17T09:37:15.889Z,5.80
2023-03-17T09:39:48.677Z,3.67
2023-03-17T09:42:36.284Z,3.55
2023-03-17T09:45:31.313Z,4.53
2023-03-17T09:48:36.727Z,4.70
2023-03-17T09:51:11.982Z,4.13
2023-03-17T09:53:52.992Z,4.22
2023-03-17T09:56:27.398Z,4.20
2023-03-17T09:59:04.982Z,4.50
2023-03-17T10:01:41.700Z,5.10
2023-03-17T10:04:18.791Z,3.83
2023-03-17T10:06:56.258Z,3.47
2023-03-17T10:09:35.853Z,6.28
2023-03-17T10:12:12.345Z,2.63
2023-03-17T10:14:55.545Z,3.78
2023-03-17T10:17:32.734Z,3.40
2023-03-17T10:20:11.359Z,6.00
2023-03-17T10:22:48.022Z,4.78
2023-03-17T10:25:24.217Z,5.03
2023-03-17T10:28:00.762Z,4.47
2023-03-17T10:30:35.436Z,3.25
2023-03-17T10:33:08.594Z,4.15
2023-03-17T10:35:44.947Z,5.55
2023-03-17T10:38:20.385Z,5.03
2023-03-17T10:40:58.165Z,5.95
2023-03-17T10:43:36.864Z,6.32
2023-03-17T10:46:20.163Z,3.45
2023-03-17T10:48:56.574Z,3.60
2023-03-17T10:51:35.315Z,4.07
2023-03-17T10:54:11.402Z,3.10
2023-03-17T10:56:47.050Z,3.05
2023-03-17T10:59:22.572Z,4.10
2023-03-17T11:01:59.406Z,2.05
2023-03-17T11:04:38.421Z,3.35
2023-03-17T11:07:18.093Z,2.85
2023-03-17T11:09:52.602Z,4.43
2023-03-17T11:12:28.316Z,7.22
2023-03-17T11:15:03.815Z,2.85
2023-03-17T11:17:47.757Z,2.33
2023-03-17T11:20:38.471Z,2.53
2023-03-17T11:23:27.295Z,2.95
2023-03-17T11:26:14.781Z,3.35
2023-03-17T11:28:57.688Z,2.35
2023-03-17T11:31:35.336Z,3.38
2023-03-17T11:34:10.343Z,2.92
2023-03-17T11:36:55.155Z,3.85
2023-03-17T11:39:41.751Z,3.70
2023-03-17T11:42:21.764Z,4.93
2023-03-17T11:45:05.251Z,2.92
2023-03-17T11:48:03.560Z,3.53
2023-03-17T11:50:42.178Z,7.40
2023-03-17T11:53:45.611Z,4.32
2023-03-17T11:56:23.004Z,2.75
2023-03-17T11:59:01.693Z,4.97
2023-03-17T12:01:46.932Z,3.08
2023-03-17T12:04:26.720Z,3.33
2023-03-17T12:07:08.382Z,2.08
2023-03-17T12:09:44.471Z,3.75
2023-03-17T12:12:29.373Z,4.72
2023-03-17T12:15:05.257Z,6.30
2023-03-17T12:17:45.935Z,3.28
2023-03-17T12:20:23.007Z,3.15
2023-03-17T12:23:00.051Z,2.22
2023-03-17T12:25:36.928Z,2.83
2023-03-17T12:28:16.365Z,3.50
2023-03-17T12:30:54.284Z,6.05
2023-03-17T12:33:36.353Z,1.77
2023-03-17T12:36:15.373Z,1.50
2023-03-17T12:38:53.793Z,2.83
2023-03-17T12:41:43.893Z,2.63
2023-03-17T12:44:30.908Z,2.55
2023-03-17T12:47:22.553Z,1.88
2023-03-17T12:50:10.990Z,3.45
2023-03-17T12:52:58.017Z,4.55
2023-03-17T12:55:36.120Z,3.80
2023-03-17T12:58:27.099Z,3.08
2023-03-17T13:01:14.117Z,4.15
2023-03-17T13:03:59.106Z,3.83
2023-03-17T13:06:39.258Z,3.95
2023-03-17T13:09:31.695Z,1.55
2023-03-17T13:12:06.670Z,1.85
2023-03-17T13:14:42.942Z,3.38
2023-03-17T13:17:41.815Z,1.85
2023-03-17T13:20:17.594Z,3.35
2023-03-17T13:23:04.972Z,1.70
2023-03-17T13:25:53.356Z,3.30
2023-03-17T13:28:28.865Z,2.50
2023-03-17T13:31:15.074Z,1.67
2023-03-17T13:33:54.875Z,1.90
2023-03-17T13:36:36.588Z,4.53
2023-03-17T13:39:30.936Z,2.22
2023-03-17T13:42:18.788Z,3.35
2023-03-17T13:45:17.702Z,2.13
2023-03-17T13:47:52.620Z,2.00
2023-03-17T13:50:32.973Z,2.45
2023-03-17T13:53:11.738Z,3.17
2023-03-17T13:56:09.114Z,1.85
2023-03-17T13:59:05.362Z,2.08
2023-03-17T14:01:44.656Z,5.25
2023-03-17T14:04:23.575Z,5.05
2023-03-17T14:07:01.099Z,1.75
2023-03-17T14:09:38.541Z,2.00
2023-03-17T14:12:16.348Z,2.78
2023-03-17T14:14:51.914Z,1.60
2023-03-17T14:17:29.131Z,3.25
2023-03-17T14:20:08.181Z,3.22
2023-03-17T14:22:45.786Z,1.92
2023-03-17T14:25:22.098Z,4.45
2023-03-17T14:27:57.793Z,3.33
2023-03-17T14:30:33.363Z,1.52
2023-03-17T14:33:14.391Z,2.25
2023-03-17T14:35:47.280Z,1.27
2023-03-17T14:38:24.991Z,1.77
2023-03-17T14:41:06.687Z,4.72
2023-03-17T14:43:39.977Z,1.50
2023-03-17T14:46:17.499Z,3.25
2023-03-17T14:48:52.385Z,1.80
2023-03-17T14:51:29.941Z,7.40
2023-03-17T14:54:06.550Z,5.20
2023-03-17T14:56:43.282Z,2.45
2023-03-17T14:59:21.954Z,2.42
2023-03-17T15:01:56.418Z,2.67
2023-03-17T15:04:31.312Z,4.05
2023-03-17T15:07:07.521Z,2.50
2023-03-17T15:09:43.118Z,3.60
2023-03-17T15:12:19.715Z,5.22
2023-03-17T15:14:55.005Z,5.60
2023-03-17T15:17:30.360Z,6.20
2023-03-17T15:20:06.693Z,2.60
2023-03-17T15:22:44.061Z,2.13
2023-03-17T15:25:29.072Z,2.65
2023-03-17T15:28:02.339Z,1.10
2023-03-17T15:30:46.768Z,3.13
2023-03-17T15:33:23.003Z,1.98
2023-03-17T15:35:56.644Z,1.73
2023-03-17T15:38:30.406Z,1.27
2023-03-17T15:41:04.658Z,1.05
2023-03-17T15:43:37.718Z,1.95
2023-03-17T15:46:21.560Z,1.45
2023-03-17T15:48:54.985Z,2.92
2023-03-17T15:51:28.016Z,2.60
2023-03-17T15:54:00.820Z,3.78
2023-03-17T15:56:35.601Z,3.38
2023-03-17T15:59:08.592Z,2.28
2023-03-17T16:01:41.993Z,2.03
2023-03-17T16:04:14.903Z,2.10
2023-03-17T16:06:49.169Z,1.98
2023-03-17T16:09:22.177Z,1.33
2023-03-17T16:11:56.551Z,1.75
2023-03-17T16:14:29.375Z,2.47
2023-03-17T16:17:02.600Z,2.72
2023-03-17T16:19:35.718Z,4.35
2023-03-17T16:22:29.674Z,3.60
2023-03-17T16:25:02.721Z,2.85
2023-03-17T16:27:36.888Z,1.80
2023-03-17T16:30:16.744Z,1.60
2023-03-17T16:32:50.591Z,5.00
2023-03-17T16:35:25.893Z,2.88
2023-03-17T16:37:58.974Z,2.08
2023-03-17T16:40:36.779Z,4.47
2023-03-17T16:43:25.510Z,4.32
2023-03-17T16:46:00.939Z,9.23
2023-03-17T16:48:34.297Z,8.32
2023-03-17T16:51:07.255Z,9.45
2023-03-17T16:53:40.329Z,10.90
2023-03-17T16:56:17.450Z,6.47
2023-03-17T16:58:51.808Z,4.57
2023-03-17T17:01:27.143Z,10.05
2023-03-17T17:04:00.196Z,4.57
2023-03-17T17:06:33.007Z,5.28
2023-03-17T17:09:06.042Z,3.72
2023-03-17T17:11:38.961Z,5.22
2023-03-17T17:14:13.351Z,4.15
2023-03-17T17:16:46.841Z,4.43
2023-03-17T17:19:19.891Z,5.40
2023-03-17T17:21:52.701Z,5.68
2023-03-17T17:24:25.621Z,11.77
2023-03-17T17:26:58.406Z,9.43
2023-03-17T17:29:32.651Z,12.73
2023-03-17T17:32:05.905Z,12.80
2023-03-17T17:34:38.795Z,7.60
2023-03-17T17:37:12.580Z,9.45
2023-03-17T17:39:45.611Z,10.50
2023-03-17T17:42:18.837Z,6.97
2023-03-17T17:44:52.998Z,11.30
2023-03-17T17:47:26.237Z,15.10
2023-03-17T17:50:00.675Z,12.93
2023-03-17T17:52:34.710Z,39.53
2023-03-17T17:55:08.124Z,62.75
2023-03-17T17:57:42.054Z,44.05
2023-03-17T18:00:18.807Z,8.77
2023-03-17T18:02:51.708Z,10.10
2023-03-17T18:05:25.470Z,13.98
2023-03-17T18:07:59.960Z,5.63
2023-03-17T18:10:33.611Z,13.85
2023-03-17T18:13:06.865Z,12.25
2023-03-17T18:15:41.596Z,16.52
2023-03-17T18:18:14.760Z,15.82
2023-03-17T18:20:48.078Z,14.85
2023-03-17T18:23:21.583Z,12.95
2023-03-17T18:26:00.721Z,10.70
2023-03-17T18:28:34.175Z,13.30
2023-03-17T18:31:13.131Z,13.07
2023-03-17T18:33:48.439Z,13.02
2023-03-17T18:36:22.504Z,14.52
2023-03-17T18:38:55.396Z,16.40
2023-03-17T18:41:28.931Z,17.40
2023-03-17T18:44:02.443Z,11.18
2023-03-17T18:46:36.948Z,12.55
2023-03-17T18:49:09.820Z,8.80
2023-03-17T18:51:42.734Z,9.75
2023-03-17T18:54:15.477Z,6.18
2023-03-17T18:56:48.992Z,27.65
2023-03-17T18:59:21.829Z,9.75
2023-03-17T19:01:58.561Z,6.35
2023-03-17T19:04:31.998Z,6.85
2023-03-17T19:07:04.936Z,6.75
2023-03-17T19:09:37.841Z,12.07
2023-03-17T19:12:10.816Z,7.90
2023-03-17T19:14:43.934Z,8.55
2023-03-17T19:17:18.213Z,8.18
2023-03-17T19:19:52.335Z,12.45
2023-03-17T19:22:25.146Z,11.30
2023-03-17T19:24:57.988Z,13.02
2023-03-17T19:27:30.938Z,10.05
2023-03-17T19:30:04.277Z,10.20
2023-03-17T19:32:38.579Z,6.03
2023-03-17T19:35:11.676Z,6.43
2023-03-17T19:37:44.512Z,8.60
2023-03-17T19:40:17.523Z,9.00
2023-03-17T19:42:50.365Z,5.75
2023-03-17T19:45:24.007Z,9.43
2023-03-17T19:47:58.243Z,7.90
2023-03-17T19:50:32.862Z,5.70
2023-03-17T19:53:07.980Z,6.32
2023-03-17T19:55:43.618Z,6.00
2023-03-17T19:58:16.422Z,9.25
2023-03-17T20:00:49.212Z,15.15
2023-03-17T20:03:26.065Z,18.38
2023-03-17T20:06:01.030Z,18.63
2023-03-17T20:08:34.393Z,16.05
2023-03-17T20:11:07.499Z,15.90
2023-03-17T20:13:41.108Z,15.63
2023-03-17T20:16:14.245Z,9.48
2023-03-17T20:18:48.806Z,12.20
2023-03-17T20:21:21.598Z,10.52
2023-03-17T20:23:54.601Z,9.63
2023-03-17T20:26:28.722Z,11.70
2023-03-17T20:29:02.035Z,11.00
2023-03-17T20:31:35.408Z,8.90
2023-03-17T20:34:10.352Z,9.60
2023-03-17T20:36:43.698Z,8.48
2023-03-17T20:39:19.847Z,12.07
2023-03-17T20:41:53.278Z,8.90
2023-03-17T20:44:26.255Z,10.48
2023-03-17T20:46:59.418Z,12.13
2023-03-17T20:49:34.087Z,11.32
2023-03-17T20:52:08.328Z,8.50
2023-03-17T20:54:41.513Z,6.40
2023-03-17T20:57:15.953Z,6.55
2023-03-17T20:59:49.146Z,8.82
2023-03-17T21:02:22.049Z,8.30
2023-03-17T21:04:56.527Z,7.15
2023-03-17T21:07:29.638Z,13.27
2023-03-17T21:10:02.719Z,10.93
2023-03-17T21:12:35.518Z,8.95
2023-03-17T21:15:10.378Z,9.50
2023-03-17T21:17:43.550Z,9.70
2023-03-17T21:20:18.098Z,8.43
2023-03-17T21:22:51.724Z,10.27
2023-03-17T21:25:24.734Z,13.25
2023-03-17T21:27:57.623Z,9.65
2023-03-17T21:30:30.977Z,10.80
2023-03-17T21:33:04.041Z,12.30
2023-03-17T21:35:38.311Z,8.10
2023-03-17T21:38:11.274Z,5.57
2023-03-17T21:40:44.183Z,8.43
2023-03-17T21:43:17.177Z,7.55
2023-03-17T21:45:50.527Z,8.70
2023-03-17T21:48:23.332Z,5.90
2023-03-17T21:50:57.950Z,8.93
2023-03-17T21:53:31.048Z,13.88
2023-03-17T21:56:04.140Z,18.02
2023-03-17T21:58:37.026Z,19.13
2023-03-17T22:01:10.448Z,15.40
2023-03-17T22:03:43.478Z,10.27
2023-03-17T22:06:18.161Z,15.30
2023-03-17T22:08:51.066Z,10.00
2023-03-17T22:11:23.946Z,8.95
2023-03-17T22:13:57.784Z,11.85
2023-03-17T22:16:30.711Z,8.63
2023-03-17T22:19:03.841Z,9.32
2023-03-17T22:21:38.085Z,9.40
2023-03-17T22:24:12.540Z,11.52
2023-03-17T22:26:45.424Z,9.38
2023-03-17T22:29:18.834Z,14.05
2023-03-17T22:31:52.445Z,8.35
2023-03-17T22:34:25.384Z,9.82
2023-03-17T22:36:59.610Z,9.82
2023-03-17T22:39:32.418Z,11.68
2023-03-17T22:42:05.752Z,10.15
2023-03-17T22:44:38.593Z,12.73
2023-03-17T22:47:11.605Z,8.93
2023-03-17T22:49:44.825Z,9.15
2023-03-17T22:52:19.168Z,10.20
2023-03-17T22:54:52.095Z,10.55
2023-03-17T22:57:24.995Z,11.77
2023-03-17T22:59:58.412Z,10.98
2023-03-17T23:02:31.794Z,11.38
2023-03-17T23:05:05.759Z,11.40
2023-03-17T23:07:50.294Z,10.48
2023-03-17T23:10:25.543Z,9.45
2023-03-17T23:12:58.434Z,12.18
2023-03-17T23:15:31.875Z,10.05
2023-03-17T23:18:05.088Z,12.30
2023-03-17T23:20:39.892Z,8.27
2023-03-17T23:23:14.138Z,7.43
2023-03-17T23:25:47.435Z,12.38
2023-03-17T23:28:20.708Z,7.97
2023-03-17T23:30:54.512Z,8.60
2023-03-17T23:33:28.582Z,7.90
2023-03-17T23:36:01.493Z,8.40
2023-03-17T23:38:36.604Z,8.93
2023-03-17T23:41:09.770Z,8.27
2023-03-17T23:43:44.141Z,9.75
2023-03-17T23:46:17.317Z,7.78
2023-03-17T23:48:50.357Z,7.90
2023-03-17T23:51:23.958Z,7.82
2023-03-17T23:53:59.190Z,7.97
2023-03-17T23:56:32.312Z,12.50
2023-03-17T23:59:07.471Z,10.65
